sensor_id;sensor_type;location;lat;lon;timestamp;P1;durP1;ratioP1;P2;durP2;ratioP2
43070;SDS011;36278;47.952;21.714;2022-09-09T00:06:46;9.38;;;4.50;;
43070;SDS011;36278;47.952;21.714;2022-09-09T00:09:25;7.85;;;4.85;;
43070;SDS011;36278;47.952;21.714;2022-09-09T00:12:13;7.30;;;4.50;;
43070;SDS011;36278;47.952;21.714;2022-09-09T00:17:24;10.97;;;4.53;;
43070;SDS011;36278;47.952;21.714;2022-09-09T00:22:55;7.82;;;4.57;;
43070;SDS011;36278;47.952;21.714;2022-09-09T00:25:29;9.95;;;4.45;;
43070;SDS011;36278;47.952;21.714;2022-09-09T00:28:02;6.65;;;5.13;;
43070;SDS011;36278;47.952;21.714;2022-09-09T00:30:39;8.93;;;4.28;;
43070;SDS011;36278;47.952;21.714;2022-09-09T00:33:10;8.07;;;3.22;;
43070;SDS011;36278;47.952;21.714;2022-09-09T00:35:42;5.73;;;3.40;;
43070;SDS011;36278;47.952;21.714;2022-09-09T00:38:15;7.83;;;3.97;;
43070;SDS011;36278;47.952;21.714;2022-09-09T00:48:16;8.53;;;4.00;;
43070;SDS011;36278;47.952;21.714;2022-09-09T00:56:14;9.13;;;5.07;;
43070;SDS011;36278;47.952;21.714;2022-09-09T00:58:49;7.27;;;5.47;;
43070;SDS011;36278;47.952;21.714;2022-09-09T01:01:25;10.70;;;6.33;;
43070;SDS011;36278;47.952;21.714;2022-09-09T01:03:54;11.63;;;6.40;;
43070;SDS011;36278;47.952;21.714;2022-09-09T01:17:00;9.05;;;7.03;;
43070;SDS011;36278;47.952;21.714;2022-09-09T01:20:14;7.43;;;5.80;;
43070;SDS011;36278;47.952;21.714;2022-09-09T01:27:57;7.30;;;5.23;;
43070;SDS011;36278;47.952;21.714;2022-09-09T01:30:25;9.48;;;5.60;;
43070;SDS011;36278;47.952;21.714;2022-09-09T01:32:56;9.30;;;4.85;;
43070;SDS011;36278;47.952;21.714;2022-09-09T01:37:56;5.25;;;3.65;;
43070;SDS011;36278;47.952;21.714;2022-09-09T01:40:21;4.07;;;3.10;;
43070;SDS011;36278;47.952;21.714;2022-09-09T01:42:47;4.23;;;3.47;;
43070;SDS011;36278;47.952;21.714;2022-09-09T01:45:13;3.63;;;3.20;;
43070;SDS011;36278;47.952;21.714;2022-09-09T01:47:38;5.00;;;3.28;;
43070;SDS011;36278;47.952;21.714;2022-09-09T01:50:05;4.70;;;3.30;;
43070;SDS011;36278;47.952;21.714;2022-09-09T01:52:36;4.43;;;3.13;;
43070;SDS011;36278;47.952;21.714;2022-09-09T01:55:03;5.07;;;3.67;;
43070;SDS011;36278;47.952;21.714;2022-09-09T02:00:10;4.22;;;3.50;;
43070;SDS011;36278;47.952;21.714;2022-09-09T02:05:39;5.90;;;3.97;;
43070;SDS011;36278;47.952;21.714;2022-09-09T02:08:08;4.97;;;3.45;;
43070;SDS011;36278;47.952;21.714;2022-09-09T02:13:09;5.90;;;3.40;;
43070;SDS011;36278;47.952;21.714;2022-09-09T02:18:27;6.50;;;3.60;;
43070;SDS011;36278;47.952;21.714;2022-09-09T02:20:57;4.50;;;3.22;;
43070;SDS011;36278;47.952;21.714;2022-09-09T02:23:24;7.23;;;3.77;;
43070;SDS011;36278;47.952;21.714;2022-09-09T02:25:50;5.20;;;4.07;;
43070;SDS011;36278;47.952;21.714;2022-09-09T02:28:18;5.97;;;4.10;;
43070;SDS011;36278;47.952;21.714;2022-09-09T02:30:46;5.28;;;4.22;;
43070;SDS011;36278;47.952;21.714;2022-09-09T02:33:20;6.13;;;4.43;;
43070;SDS011;36278;47.952;21.714;2022-09-09T02:35:49;7.83;;;4.43;;
43070;SDS011;36278;47.952;21.714;2022-09-09T02:38:17;5.53;;;4.88;;
43070;SDS011;36278;47.952;21.714;2022-09-09T02:40:47;4.90;;;4.50;;
43070;SDS011;36278;47.952;21.714;2022-09-09T02:43:14;5.83;;;4.80;;
43070;SDS011;36278;47.952;21.714;2022-09-09T02:45:42;5.37;;;4.63;;
43070;SDS011;36278;47.952;21.714;2022-09-09T02:48:18;5.07;;;4.57;;
43070;SDS011;36278;47.952;21.714;2022-09-09T02:56:27;5.50;;;4.47;;
43070;SDS011;36278;47.952;21.714;2022-09-09T02:58:57;4.85;;;4.07;;
43070;SDS011;36278;47.952;21.714;2022-09-09T03:01:23;6.07;;;4.63;;
43070;SDS011;36278;47.952;21.714;2022-09-09T03:03:49;5.00;;;4.33;;
43070;SDS011;36278;47.952;21.714;2022-09-09T03:06:14;6.97;;;4.80;;
43070;SDS011;36278;47.952;21.714;2022-09-09T03:08:40;5.90;;;4.57;;
43070;SDS011;36278;47.952;21.714;2022-09-09T03:11:05;5.03;;;4.50;;
43070;SDS011;36278;47.952;21.714;2022-09-09T03:13:32;5.00;;;4.20;;
43070;SDS011;36278;47.952;21.714;2022-09-09T03:15:57;4.90;;;4.40;;
43070;SDS011;36278;47.952;21.714;2022-09-09T03:18:23;4.68;;;4.18;;
43070;SDS011;36278;47.952;21.714;2022-09-09T03:20:50;5.47;;;4.88;;
43070;SDS011;36278;47.952;21.714;2022-09-09T03:23:16;5.40;;;4.90;;
43070;SDS011;36278;47.952;21.714;2022-09-09T03:25:48;6.07;;;5.13;;
43070;SDS011;36278;47.952;21.714;2022-09-09T03:28:15;5.43;;;4.68;;
43070;SDS011;36278;47.952;21.714;2022-09-09T03:30:40;5.88;;;5.28;;
43070;SDS011;36278;47.952;21.714;2022-09-09T03:33:06;6.13;;;5.53;;
43070;SDS011;36278;47.952;21.714;2022-09-09T03:35:31;5.95;;;5.35;;
43070;SDS011;36278;47.952;21.714;2022-09-09T03:37:57;8.30;;;5.25;;
43070;SDS011;36278;47.952;21.714;2022-09-09T03:40:22;5.50;;;5.00;;
43070;SDS011;36278;47.952;21.714;2022-09-09T03:42:48;5.40;;;4.90;;
43070;SDS011;36278;47.952;21.714;2022-09-09T03:45:13;5.63;;;4.90;;
43070;SDS011;36278;47.952;21.714;2022-09-09T03:47:39;5.35;;;4.85;;
43070;SDS011;36278;47.952;21.714;2022-09-09T03:50:05;5.60;;;5.10;;
43070;SDS011;36278;47.952;21.714;2022-09-09T03:52:37;6.18;;;5.03;;
43070;SDS011;36278;47.952;21.714;2022-09-09T03:55:04;5.60;;;5.10;;
43070;SDS011;36278;47.952;21.714;2022-09-09T03:57:30;5.55;;;5.03;;
43070;SDS011;36278;47.952;21.714;2022-09-09T03:59:57;5.88;;;5.28;;
43070;SDS011;36278;47.952;21.714;2022-09-09T04:02:23;6.25;;;5.25;;
43070;SDS011;36278;47.952;21.714;2022-09-09T04:04:48;7.72;;;5.35;;
43070;SDS011;36278;47.952;21.714;2022-09-09T04:07:14;6.10;;;5.22;;
43070;SDS011;36278;47.952;21.714;2022-09-09T04:09:39;5.73;;;5.10;;
43070;SDS011;36278;47.952;21.714;2022-09-09T04:12:05;6.40;;;5.80;;
43070;SDS011;36278;47.952;21.714;2022-09-09T04:14:31;6.18;;;5.28;;
43070;SDS011;36278;47.952;21.714;2022-09-09T04:16:57;6.13;;;5.53;;
43070;SDS011;36278;47.952;21.714;2022-09-09T04:19:24;6.72;;;6.05;;
43070;SDS011;36278;47.952;21.714;2022-09-09T04:21:49;6.90;;;6.20;;
43070;SDS011;36278;47.952;21.714;2022-09-09T04:24:16;6.97;;;6.28;;
43070;SDS011;36278;47.952;21.714;2022-09-09T04:26:42;7.93;;;6.93;;
43070;SDS011;36278;47.952;21.714;2022-09-09T04:29:08;8.27;;;7.35;;
43070;SDS011;36278;47.952;21.714;2022-09-09T04:31:33;7.40;;;6.70;;
43070;SDS011;36278;47.952;21.714;2022-09-09T04:33:59;6.93;;;6.22;;
43070;SDS011;36278;47.952;21.714;2022-09-09T04:36:30;7.78;;;6.10;;
43070;SDS011;36278;47.952;21.714;2022-09-09T04:38:56;6.57;;;5.97;;
43070;SDS011;36278;47.952;21.714;2022-09-09T04:41:22;6.93;;;6.30;;
43070;SDS011;36278;47.952;21.714;2022-09-09T04:43:47;7.10;;;6.40;;
43070;SDS011;36278;47.952;21.714;2022-09-09T04:46:13;7.63;;;6.43;;
43070;SDS011;36278;47.952;21.714;2022-09-09T04:48:38;6.93;;;6.32;;
43070;SDS011;36278;47.952;21.714;2022-09-09T04:51:05;7.03;;;6.20;;
43070;SDS011;36278;47.952;21.714;2022-09-09T04:53:32;7.05;;;6.32;;
43070;SDS011;36278;47.952;21.714;2022-09-09T04:56:03;8.00;;;6.78;;
43070;SDS011;36278;47.952;21.714;2022-09-09T04:58:30;8.75;;;6.60;;
43070;SDS011;36278;47.952;21.714;2022-09-09T05:01:03;7.13;;;6.43;;
43070;SDS011;36278;47.952;21.714;2022-09-09T05:03:30;7.88;;;6.70;;
43070;SDS011;36278;47.952;21.714;2022-09-09T05:06:02;7.07;;;6.15;;
43070;SDS011;36278;47.952;21.714;2022-09-09T05:08:29;8.70;;;6.53;;
43070;SDS011;36278;47.952;21.714;2022-09-09T05:10:54;9.95;;;7.03;;
43070;SDS011;36278;47.952;21.714;2022-09-09T05:13:20;8.05;;;7.20;;
43070;SDS011;36278;47.952;21.714;2022-09-09T05:15:52;9.80;;;7.65;;
43070;SDS011;36278;47.952;21.714;2022-09-09T05:18:18;9.05;;;7.45;;
43070;SDS011;36278;47.952;21.714;2022-09-09T05:20:44;9.20;;;7.57;;
43070;SDS011;36278;47.952;21.714;2022-09-09T05:23:09;9.98;;;7.82;;
43070;SDS011;36278;47.952;21.714;2022-09-09T05:25:38;9.73;;;8.05;;
43070;SDS011;36278;47.952;21.714;2022-09-09T05:28:04;8.98;;;7.90;;
43070;SDS011;36278;47.952;21.714;2022-09-09T05:30:30;9.68;;;8.85;;
43070;SDS011;36278;47.952;21.714;2022-09-09T05:32:55;10.20;;;9.20;;
43070;SDS011;36278;47.952;21.714;2022-09-09T05:35:21;10.45;;;9.00;;
43070;SDS011;36278;47.952;21.714;2022-09-09T05:37:48;9.20;;;8.30;;
43070;SDS011;36278;47.952;21.714;2022-09-09T05:40:14;8.77;;;7.97;;
43070;SDS011;36278;47.952;21.714;2022-09-09T05:42:39;8.82;;;7.95;;
43070;SDS011;36278;47.952;21.714;2022-09-09T05:45:06;9.30;;;8.40;;
43070;SDS011;36278;47.952;21.714;2022-09-09T05:47:33;8.90;;;8.00;;
43070;SDS011;36278;47.952;21.714;2022-09-09T05:49:58;9.75;;;8.85;;
43070;SDS011;36278;47.952;21.714;2022-09-09T05:52:24;9.18;;;8.30;;
43070;SDS011;36278;47.952;21.714;2022-09-09T05:54:51;8.73;;;7.93;;
43070;SDS011;36278;47.952;21.714;2022-09-09T05:57:16;12.15;;;10.55;;
43070;SDS011;36278;47.952;21.714;2022-09-09T05:59:44;9.85;;;8.95;;
43070;SDS011;36278;47.952;21.714;2022-09-09T06:02:09;10.45;;;8.85;;
43070;SDS011;36278;47.952;21.714;2022-09-09T06:04:35;9.63;;;8.63;;
43070;SDS011;36278;47.952;21.714;2022-09-09T06:07:00;9.68;;;8.57;;
43070;SDS011;36278;47.952;21.714;2022-09-09T06:09:26;9.80;;;8.73;;
43070;SDS011;36278;47.952;21.714;2022-09-09T06:11:51;10.00;;;9.10;;
43070;SDS011;36278;47.952;21.714;2022-09-09T06:14:17;10.00;;;9.10;;
43070;SDS011;36278;47.952;21.714;2022-09-09T06:16:46;11.00;;;9.90;;
43070;SDS011;36278;47.952;21.714;2022-09-09T06:19:12;11.18;;;9.77;;
43070;SDS011;36278;47.952;21.714;2022-09-09T06:21:37;11.90;;;9.70;;
43070;SDS011;36278;47.952;21.714;2022-09-09T06:24:04;10.57;;;9.68;;
43070;SDS011;36278;47.952;21.714;2022-09-09T06:26:33;10.30;;;9.20;;
43070;SDS011;36278;47.952;21.714;2022-09-09T06:29:01;10.05;;;9.05;;
43070;SDS011;36278;47.952;21.714;2022-09-09T06:31:33;26.73;;;24.20;;
43070;SDS011;36278;47.952;21.714;2022-09-09T06:34:00;11.45;;;9.90;;
43070;SDS011;36278;47.952;21.714;2022-09-09T06:36:28;10.23;;;8.98;;
43070;SDS011;36278;47.952;21.714;2022-09-09T06:38:54;10.05;;;9.05;;
43070;SDS011;36278;47.952;21.714;2022-09-09T06:41:21;9.63;;;8.68;;
43070;SDS011;36278;47.952;21.714;2022-09-09T06:43:48;13.38;;;8.18;;
43070;SDS011;36278;47.952;21.714;2022-09-09T06:46:15;10.77;;;8.45;;
43070;SDS011;36278;47.952;21.714;2022-09-09T06:48:43;9.80;;;8.80;;
43070;SDS011;36278;47.952;21.714;2022-09-09T06:51:15;10.07;;;8.82;;
43070;SDS011;36278;47.952;21.714;2022-09-09T06:53:43;9.02;;;8.23;;
43070;SDS011;36278;47.952;21.714;2022-09-09T06:58:35;9.15;;;8.15;;
43070;SDS011;36278;47.952;21.714;2022-09-09T07:01:02;9.50;;;8.50;;
43070;SDS011;36278;47.952;21.714;2022-09-09T07:03:32;10.50;;;9.50;;
43070;SDS011;36278;47.952;21.714;2022-09-09T07:05:58;10.15;;;9.00;;
43070;SDS011;36278;47.952;21.714;2022-09-09T07:08:24;10.43;;;8.77;;
43070;SDS011;36278;47.952;21.714;2022-09-09T07:10:50;9.73;;;7.97;;
43070;SDS011;36278;47.952;21.714;2022-09-09T07:13:19;9.27;;;8.38;;
43070;SDS011;36278;47.952;21.714;2022-09-09T07:15:50;10.70;;;8.88;;
43070;SDS011;36278;47.952;21.714;2022-09-09T07:18:17;9.55;;;8.52;;
43070;SDS011;36278;47.952;21.714;2022-09-09T07:20:42;10.45;;;8.73;;
43070;SDS011;36278;47.952;21.714;2022-09-09T07:23:08;9.95;;;8.48;;
43070;SDS011;36278;47.952;21.714;2022-09-09T07:25:33;9.82;;;8.40;;
43070;SDS011;36278;47.952;21.714;2022-09-09T07:27:59;10.90;;;8.55;;
43070;SDS011;36278;47.952;21.714;2022-09-09T07:30:24;10.13;;;9.15;;
43070;SDS011;36278;47.952;21.714;2022-09-09T07:32:53;13.45;;;9.57;;
43070;SDS011;36278;47.952;21.714;2022-09-09T07:35:18;9.68;;;8.77;;
43070;SDS011;36278;47.952;21.714;2022-09-09T07:37:44;11.68;;;8.82;;
43070;SDS011;36278;47.952;21.714;2022-09-09T07:40:10;9.70;;;8.80;;
43070;SDS011;36278;47.952;21.714;2022-09-09T07:42:35;10.13;;;9.13;;
43070;SDS011;36278;47.952;21.714;2022-09-09T07:45:03;9.73;;;8.82;;
43070;SDS011;36278;47.952;21.714;2022-09-09T07:47:30;10.82;;;8.75;;
43070;SDS011;36278;47.952;21.714;2022-09-09T07:49:56;9.48;;;8.57;;
43070;SDS011;36278;47.952;21.714;2022-09-09T07:52:21;10.48;;;9.32;;
43070;SDS011;36278;47.952;21.714;2022-09-09T07:54:47;9.73;;;8.82;;
43070;SDS011;36278;47.952;21.714;2022-09-09T07:57:13;9.85;;;8.85;;
43070;SDS011;36278;47.952;21.714;2022-09-09T07:59:40;15.30;;;9.13;;
43070;SDS011;36278;47.952;21.714;2022-09-09T08:02:06;10.60;;;8.98;;
43070;SDS011;36278;47.952;21.714;2022-09-09T08:04:31;9.68;;;8.88;;
43070;SDS011;36278;47.952;21.714;2022-09-09T08:06:58;11.35;;;9.55;;
43070;SDS011;36278;47.952;21.714;2022-09-09T08:09:26;9.73;;;8.82;;
43070;SDS011;36278;47.952;21.714;2022-09-09T08:11:57;10.20;;;9.25;;
43070;SDS011;36278;47.952;21.714;2022-09-09T08:14:23;10.02;;;8.95;;
43070;SDS011;36278;47.952;21.714;2022-09-09T08:16:50;13.77;;;8.45;;
43070;SDS011;36278;47.952;21.714;2022-09-09T08:19:16;10.45;;;8.57;;
43070;SDS011;36278;47.952;21.714;2022-09-09T08:21:42;9.80;;;8.77;;
43070;SDS011;36278;47.952;21.714;2022-09-09T08:24:09;9.13;;;8.23;;
43070;SDS011;36278;47.952;21.714;2022-09-09T08:26:40;12.90;;;9.88;;
43070;SDS011;36278;47.952;21.714;2022-09-09T08:29:08;9.63;;;8.63;;
43070;SDS011;36278;47.952;21.714;2022-09-09T08:31:45;10.65;;;9.00;;
43070;SDS011;36278;47.952;21.714;2022-09-09T08:34:12;10.48;;;8.65;;
43070;SDS011;36278;47.952;21.714;2022-09-09T08:36:39;9.93;;;8.93;;
43070;SDS011;36278;47.952;21.714;2022-09-09T08:39:10;10.23;;;8.88;;
43070;SDS011;36278;47.952;21.714;2022-09-09T08:58:17;9.68;;;8.77;;
43070;SDS011;36278;47.952;21.714;2022-09-09T09:11:36;10.45;;;9.35;;
43070;SDS011;36278;47.952;21.714;2022-09-09T09:14:07;11.07;;;9.43;;
43070;SDS011;36278;47.952;21.714;2022-09-09T09:19:23;10.50;;;9.45;;
43070;SDS011;36278;47.952;21.714;2022-09-09T09:21:56;10.70;;;8.80;;
43070;SDS011;36278;47.952;21.714;2022-09-09T09:30:01;10.65;;;9.60;;
43070;SDS011;36278;47.952;21.714;2022-09-09T09:35:25;15.18;;;9.02;;
43070;SDS011;36278;47.952;21.714;2022-09-09T09:37:50;14.68;;;9.05;;
43070;SDS011;36278;47.952;21.714;2022-09-09T09:40:19;10.60;;;8.75;;
43070;SDS011;36278;47.952;21.714;2022-09-09T09:42:54;10.68;;;9.57;;
43070;SDS011;36278;47.952;21.714;2022-09-09T09:45:35;10.18;;;8.93;;
43070;SDS011;36278;47.952;21.714;2022-09-09T09:48:13;10.50;;;8.70;;
43070;SDS011;36278;47.952;21.714;2022-09-09T09:53:22;11.23;;;10.13;;
43070;SDS011;36278;47.952;21.714;2022-09-09T09:55:54;10.00;;;8.30;;
43070;SDS011;36278;47.952;21.714;2022-09-09T09:58:25;10.82;;;9.07;;
43070;SDS011;36278;47.952;21.714;2022-09-09T10:00:53;11.35;;;8.30;;
43070;SDS011;36278;47.952;21.714;2022-09-09T10:05:55;9.52;;;8.63;;
43070;SDS011;36278;47.952;21.714;2022-09-09T10:08:22;8.15;;;7.40;;
43070;SDS011;36278;47.952;21.714;2022-09-09T10:13:54;11.57;;;7.57;;
43070;SDS011;36278;47.952;21.714;2022-09-09T10:19:33;8.65;;;7.65;;
43070;SDS011;36278;47.952;21.714;2022-09-09T10:22:05;9.00;;;8.10;;
43070;SDS011;36278;47.952;21.714;2022-09-09T10:27:15;8.35;;;7.55;;
43070;SDS011;36278;47.952;21.714;2022-09-09T10:35:30;8.95;;;7.78;;
43070;SDS011;36278;47.952;21.714;2022-09-09T10:41:15;10.00;;;7.53;;
43070;SDS011;36278;47.952;21.714;2022-09-09T10:51:58;11.13;;;7.53;;
43070;SDS011;36278;47.952;21.714;2022-09-09T10:54:32;10.23;;;8.48;;
43070;SDS011;36278;47.952;21.714;2022-09-09T10:59:54;9.20;;;6.95;;
43070;SDS011;36278;47.952;21.714;2022-09-09T11:02:29;13.57;;;7.97;;
43070;SDS011;36278;47.952;21.714;2022-09-09T11:10:04;9.07;;;7.20;;
43070;SDS011;36278;47.952;21.714;2022-09-09T11:12:40;10.95;;;7.65;;
43070;SDS011;36278;47.952;21.714;2022-09-09T11:15:15;8.63;;;7.78;;
43070;SDS011;36278;47.952;21.714;2022-09-09T11:17:51;9.18;;;7.68;;
43070;SDS011;36278;47.952;21.714;2022-09-09T11:20:21;12.13;;;8.20;;
43070;SDS011;36278;47.952;21.714;2022-09-09T11:23:01;10.50;;;7.22;;
43070;SDS011;36278;47.952;21.714;2022-09-09T11:25:34;10.23;;;6.57;;
43070;SDS011;36278;47.952;21.714;2022-09-09T11:41:51;10.52;;;6.10;;
43070;SDS011;36278;47.952;21.714;2022-09-09T11:44:17;7.93;;;6.35;;
43070;SDS011;36278;47.952;21.714;2022-09-09T11:46:51;6.22;;;5.65;;
43070;SDS011;36278;47.952;21.714;2022-09-09T11:49:27;8.68;;;5.95;;
43070;SDS011;36278;47.952;21.714;2022-09-09T11:51:54;6.60;;;5.80;;
43070;SDS011;36278;47.952;21.714;2022-09-09T11:54:32;7.45;;;6.32;;
43070;SDS011;36278;47.952;21.714;2022-09-09T11:57:23;15.50;;;6.25;;
43070;SDS011;36278;47.952;21.714;2022-09-09T11:59:51;6.07;;;5.47;;
43070;SDS011;36278;47.952;21.714;2022-09-09T12:02:24;6.18;;;5.57;;
43070;SDS011;36278;47.952;21.714;2022-09-09T12:05:02;7.03;;;5.68;;
43070;SDS011;36278;47.952;21.714;2022-09-09T12:10:35;7.55;;;5.53;;
43070;SDS011;36278;47.952;21.714;2022-09-09T12:13:16;7.50;;;5.30;;
43070;SDS011;36278;47.952;21.714;2022-09-09T12:15:51;8.15;;;5.57;;
43070;SDS011;36278;47.952;21.714;2022-09-09T12:23:47;5.22;;;4.53;;
43070;SDS011;36278;47.952;21.714;2022-09-09T12:31:36;7.50;;;5.03;;
43070;SDS011;36278;47.952;21.714;2022-09-09T12:37:04;7.57;;;4.70;;
43070;SDS011;36278;47.952;21.714;2022-09-09T12:39:51;6.32;;;4.88;;
43070;SDS011;36278;47.952;21.714;2022-09-09T12:42:24;9.00;;;5.20;;
43070;SDS011;36278;47.952;21.714;2022-09-09T12:44:55;5.18;;;4.68;;
43070;SDS011;36278;47.952;21.714;2022-09-09T12:47:26;4.97;;;4.40;;
43070;SDS011;36278;47.952;21.714;2022-09-09T12:50:00;6.95;;;4.72;;
43070;SDS011;36278;47.952;21.714;2022-09-09T12:52:32;9.30;;;4.90;;
43070;SDS011;36278;47.952;21.714;2022-09-09T12:55:03;8.50;;;4.78;;
43070;SDS011;36278;47.952;21.714;2022-09-09T12:57:35;6.10;;;5.20;;
43070;SDS011;36278;47.952;21.714;2022-09-09T13:02:36;5.65;;;5.05;;
43070;SDS011;36278;47.952;21.714;2022-09-09T13:05:13;5.82;;;4.65;;
43070;SDS011;36278;47.952;21.714;2022-09-09T13:07:41;4.93;;;4.40;;
43070;SDS011;36278;47.952;21.714;2022-09-09T13:10:10;6.45;;;4.32;;
43070;SDS011;36278;47.952;21.714;2022-09-09T13:12:37;5.90;;;3.92;;
43070;SDS011;36278;47.952;21.714;2022-09-09T13:15:02;8.90;;;4.70;;
43070;SDS011;36278;47.952;21.714;2022-09-09T13:17:28;5.80;;;4.18;;
43070;SDS011;36278;47.952;21.714;2022-09-09T13:19:54;6.85;;;4.72;;
43070;SDS011;36278;47.952;21.714;2022-09-09T13:22:27;5.35;;;4.57;;
43070;SDS011;36278;47.952;21.714;2022-09-09T13:25:02;4.97;;;4.45;;
43070;SDS011;36278;47.952;21.714;2022-09-09T13:27:50;7.50;;;4.45;;
43070;SDS011;36278;47.952;21.714;2022-09-09T13:30:20;4.97;;;4.20;;
43070;SDS011;36278;47.952;21.714;2022-09-09T13:32:59;12.73;;;5.13;;
43070;SDS011;36278;47.952;21.714;2022-09-09T13:35:34;5.00;;;4.50;;
43070;SDS011;36278;47.952;21.714;2022-09-09T13:38:07;6.03;;;4.40;;
43070;SDS011;36278;47.952;21.714;2022-09-09T13:40:36;6.38;;;4.43;;
43070;SDS011;36278;47.952;21.714;2022-09-09T13:43:02;5.75;;;4.50;;
43070;SDS011;36278;47.952;21.714;2022-09-09T13:45:28;7.60;;;4.65;;
43070;SDS011;36278;47.952;21.714;2022-09-09T13:47:54;5.47;;;4.65;;
43070;SDS011;36278;47.952;21.714;2022-09-09T13:52:46;7.97;;;4.78;;
43070;SDS011;36278;47.952;21.714;2022-09-09T13:55:23;7.30;;;4.90;;
43070;SDS011;36278;47.952;21.714;2022-09-09T13:57:54;6.28;;;5.00;;
43070;SDS011;36278;47.952;21.714;2022-09-09T14:00:19;7.88;;;4.65;;
43070;SDS011;36278;47.952;21.714;2022-09-09T14:02:46;5.63;;;4.85;;
43070;SDS011;36278;47.952;21.714;2022-09-09T14:05:12;5.68;;;4.72;;
43070;SDS011;36278;47.952;21.714;2022-09-09T14:07:38;9.20;;;4.78;;
43070;SDS011;36278;47.952;21.714;2022-09-09T14:10:05;5.35;;;4.75;;
43070;SDS011;36278;47.952;21.714;2022-09-09T14:12:31;6.40;;;4.55;;
43070;SDS011;36278;47.952;21.714;2022-09-09T14:14:57;4.82;;;4.28;;
43070;SDS011;36278;47.952;21.714;2022-09-09T14:17:22;5.30;;;4.20;;
43070;SDS011;36278;47.952;21.714;2022-09-09T14:19:47;7.15;;;4.35;;
43070;SDS011;36278;47.952;21.714;2022-09-09T14:22:13;5.43;;;4.53;;
43070;SDS011;36278;47.952;21.714;2022-09-09T14:24:39;4.70;;;4.20;;
43070;SDS011;36278;47.952;21.714;2022-09-09T14:27:05;5.57;;;4.65;;
43070;SDS011;36278;47.952;21.714;2022-09-09T14:29:31;6.15;;;4.32;;
43070;SDS011;36278;47.952;21.714;2022-09-09T14:31:58;5.70;;;4.57;;
43070;SDS011;36278;47.952;21.714;2022-09-09T14:34:26;9.55;;;4.68;;
43070;SDS011;36278;47.952;21.714;2022-09-09T14:36:51;6.32;;;5.00;;
43070;SDS011;36278;47.952;21.714;2022-09-09T14:39:17;6.63;;;4.88;;
43070;SDS011;36278;47.952;21.714;2022-09-09T14:41:42;5.28;;;4.55;;
43070;SDS011;36278;47.952;21.714;2022-09-09T14:44:08;6.30;;;5.20;;
43070;SDS011;36278;47.952;21.714;2022-09-09T14:46:33;7.93;;;5.20;;
43070;SDS011;36278;47.952;21.714;2022-09-09T14:48:59;7.18;;;4.72;;
43070;SDS011;36278;47.952;21.714;2022-09-09T14:51:25;4.90;;;4.22;;
43070;SDS011;36278;47.952;21.714;2022-09-09T14:53:55;5.30;;;4.57;;
43070;SDS011;36278;47.952;21.714;2022-09-09T14:56:24;5.78;;;4.82;;
43070;SDS011;36278;47.952;21.714;2022-09-09T14:58:52;5.90;;;4.45;;
43070;SDS011;36278;47.952;21.714;2022-09-09T15:01:20;5.68;;;4.65;;
43070;SDS011;36278;47.952;21.714;2022-09-09T15:03:53;5.03;;;4.35;;
43070;SDS011;36278;47.952;21.714;2022-09-09T15:06:20;5.85;;;4.72;;
43070;SDS011;36278;47.952;21.714;2022-09-09T15:08:47;5.10;;;4.55;;
43070;SDS011;36278;47.952;21.714;2022-09-09T15:11:15;5.45;;;4.32;;
43070;SDS011;36278;47.952;21.714;2022-09-09T15:13:41;6.22;;;4.38;;
43070;SDS011;36278;47.952;21.714;2022-09-09T15:16:14;11.05;;;5.10;;
43070;SDS011;36278;47.952;21.714;2022-09-09T15:18:41;5.30;;;4.28;;
43070;SDS011;36278;47.952;21.714;2022-09-09T15:21:15;5.38;;;4.43;;
43070;SDS011;36278;47.952;21.714;2022-09-09T15:23:42;6.32;;;4.72;;
43070;SDS011;36278;47.952;21.714;2022-09-09T15:26:08;7.13;;;4.65;;
43070;SDS011;36278;47.952;21.714;2022-09-09T15:28:35;9.77;;;4.90;;
43070;SDS011;36278;47.952;21.714;2022-09-09T15:31:06;7.43;;;4.95;;
43070;SDS011;36278;47.952;21.714;2022-09-09T15:33:36;5.72;;;4.70;;
43070;SDS011;36278;47.952;21.714;2022-09-09T15:36:19;8.48;;;4.20;;
43070;SDS011;36278;47.952;21.714;2022-09-09T15:38:46;5.45;;;4.18;;
43070;SDS011;36278;47.952;21.714;2022-09-09T15:41:13;5.80;;;4.55;;
43070;SDS011;36278;47.952;21.714;2022-09-09T15:43:42;4.70;;;4.30;;
43070;SDS011;36278;47.952;21.714;2022-09-09T15:46:23;5.93;;;3.80;;
43070;SDS011;36278;47.952;21.714;2022-09-09T15:48:56;5.43;;;4.15;;
43070;SDS011;36278;47.952;21.714;2022-09-09T15:51:29;4.93;;;4.07;;
43070;SDS011;36278;47.952;21.714;2022-09-09T15:53:55;5.43;;;4.13;;
43070;SDS011;36278;47.952;21.714;2022-09-09T15:56:23;4.80;;;4.30;;
43070;SDS011;36278;47.952;21.714;2022-09-09T15:58:50;5.63;;;4.10;;
43070;SDS011;36278;47.952;21.714;2022-09-09T16:01:17;5.25;;;4.28;;
43070;SDS011;36278;47.952;21.714;2022-09-09T16:03:44;5.63;;;5.10;;
43070;SDS011;36278;47.952;21.714;2022-09-09T16:06:15;5.45;;;4.80;;
43070;SDS011;36278;47.952;21.714;2022-09-09T16:08:46;6.22;;;4.90;;
43070;SDS011;36278;47.952;21.714;2022-09-09T16:11:22;7.40;;;4.25;;
43070;SDS011;36278;47.952;21.714;2022-09-09T16:13:50;6.63;;;4.93;;
43070;SDS011;36278;47.952;21.714;2022-09-09T16:16:18;6.07;;;4.57;;
43070;SDS011;36278;47.952;21.714;2022-09-09T16:18:47;5.88;;;4.65;;
43070;SDS011;36278;47.952;21.714;2022-09-09T16:21:19;6.65;;;4.93;;
43070;SDS011;36278;47.952;21.714;2022-09-09T16:23:49;5.03;;;4.53;;
43070;SDS011;36278;47.952;21.714;2022-09-09T16:26:15;5.40;;;4.78;;
43070;SDS011;36278;47.952;21.714;2022-09-09T16:28:42;6.47;;;4.90;;
43070;SDS011;36278;47.952;21.714;2022-09-09T16:31:09;9.15;;;5.80;;
43070;SDS011;36278;47.952;21.714;2022-09-09T16:33:39;6.40;;;5.22;;
43070;SDS011;36278;47.952;21.714;2022-09-09T16:36:09;6.25;;;4.70;;
43070;SDS011;36278;47.952;21.714;2022-09-09T16:38:37;5.78;;;5.10;;
43070;SDS011;36278;47.952;21.714;2022-09-09T16:41:03;7.60;;;5.18;;
43070;SDS011;36278;47.952;21.714;2022-09-09T16:43:31;5.55;;;5.05;;
43070;SDS011;36278;47.952;21.714;2022-09-09T16:46:14;7.53;;;4.75;;
43070;SDS011;36278;47.952;21.714;2022-09-09T16:48:45;6.28;;;5.30;;
43070;SDS011;36278;47.952;21.714;2022-09-09T16:51:16;7.90;;;5.00;;
43070;SDS011;36278;47.952;21.714;2022-09-09T16:53:43;8.95;;;5.50;;
43070;SDS011;36278;47.952;21.714;2022-09-09T16:56:19;7.20;;;5.32;;
43070;SDS011;36278;47.952;21.714;2022-09-09T16:58:56;6.22;;;5.03;;
43070;SDS011;36278;47.952;21.714;2022-09-09T17:01:24;9.48;;;5.63;;
43070;SDS011;36278;47.952;21.714;2022-09-09T17:03:54;8.32;;;5.13;;
43070;SDS011;36278;47.952;21.714;2022-09-09T17:06:21;5.88;;;4.82;;
43070;SDS011;36278;47.952;21.714;2022-09-09T17:08:53;7.30;;;5.55;;
43070;SDS011;36278;47.952;21.714;2022-09-09T17:11:19;7.88;;;5.43;;
43070;SDS011;36278;47.952;21.714;2022-09-09T17:13:45;8.25;;;5.50;;
43070;SDS011;36278;47.952;21.714;2022-09-09T17:16:12;7.07;;;5.25;;
43070;SDS011;36278;47.952;21.714;2022-09-09T17:18:40;6.88;;;5.30;;
43070;SDS011;36278;47.952;21.714;2022-09-09T17:21:07;6.78;;;5.38;;
43070;SDS011;36278;47.952;21.714;2022-09-09T17:23:35;13.02;;;5.45;;
43070;SDS011;36278;47.952;21.714;2022-09-09T17:26:03;9.48;;;5.25;;
43070;SDS011;36278;47.952;21.714;2022-09-09T17:28:31;9.13;;;5.70;;
43070;SDS011;36278;47.952;21.714;2022-09-09T17:30:59;7.50;;;5.75;;
43070;SDS011;36278;47.952;21.714;2022-09-09T17:33:30;6.85;;;5.20;;
43070;SDS011;36278;47.952;21.714;2022-09-09T17:35:59;6.43;;;5.25;;